createdAt,value
2023-02-28T00:00:11.549Z,101584.03
2023-02-28T00:02:42.481Z,101579.59
2023-02-28T00:05:12.482Z,101582.13
2023-02-28T00:07:41.390Z,101581.34
2023-02-28T00:10:12.222Z,101577.25
2023-02-28T00:12:40.806Z,101582.59
2023-02-28T00:15:10.683Z,101576.56
2023-02-28T00:17:41.464Z,101574.94
2023-02-28T00:20:13.016Z,101583.34
2023-02-28T00:22:42.857Z,101582.47
2023-02-28T00:25:13.003Z,101575.41
2023-02-28T00:27:42.277Z,101574.53
2023-02-28T00:30:14.146Z,101574.50
2023-02-28T00:32:44.456Z,101575.41
2023-02-28T00:35:13.725Z,101574.53
2023-02-28T00:37:42.371Z,101573.81
2023-02-28T00:40:13.302Z,101574.53
2023-02-28T00:42:42.458Z,101567.50
2023-02-28T00:45:11.832Z,101571.78
2023-02-28T00:47:40.355Z,101569.09
2023-02-28T00:50:12.912Z,101563.88
2023-02-28T00:52:41.362Z,101570.75
2023-02-28T00:55:11.231Z,101570.66
2023-02-28T00:57:40.268Z,101560.25
2023-02-28T01:00:10.875Z,101574.06
2023-02-28T01:02:39.434Z,101567.16
2023-02-28T01:05:10.563Z,101568.03
2023-02-28T01:07:39.546Z,101570.56
2023-02-28T01:10:08.942Z,101570.56
2023-02-28T01:12:37.378Z,101573.97
2023-02-28T01:15:06.778Z,101563.63
2023-02-28T01:17:35.350Z,101561.03
2023-02-28T01:20:04.546Z,101564.44
2023-02-28T01:22:34.546Z,101557.75
2023-02-28T01:25:03.075Z,101562.06
2023-02-28T01:27:31.551Z,101559.53
2023-02-28T01:30:00.039Z,101564.75
2023-02-28T01:32:28.666Z,101568.28
2023-02-28T01:34:57.511Z,101560.47
2023-02-28T01:37:26.180Z,101572.50
2023-02-28T01:39:56.248Z,101555.25
2023-02-28T01:42:25.317Z,101557.81
2023-02-28T01:45:03.943Z,101551.72
2023-02-28T01:47:39.066Z,101548.44
2023-02-28T01:50:12.049Z,101559.69
2023-02-28T01:52:40.976Z,101558.03
2023-02-28T01:55:15.053Z,101558.78
2023-02-28T01:57:50.490Z,101549.31
2023-02-28T02:00:22.545Z,101558.78
2023-02-28T02:02:53.766Z,101546.97
2023-02-28T02:05:24.223Z,101559.69
2023-02-28T02:07:56.748Z,101561.56
2023-02-28T02:10:33.794Z,101562.34
2023-02-28T02:13:16.728Z,101543.56
2023-02-28T02:15:54.260Z,101555.47
2023-02-28T02:18:33.663Z,101556.47
2023-02-28T02:21:30.834Z,101553.78
2023-02-28T02:24:30.703Z,101547.03
2023-02-28T02:27:21.212Z,101543.56
2023-02-28T02:30:22.965Z,101555.59
2023-02-28T02:33:11.453Z,101560.81
2023-02-28T02:35:47.662Z,101551.28
2023-02-28T02:38:21.717Z,101557.28
2023-02-28T02:40:56.595Z,101539.22
2023-02-28T02:43:31.559Z,101552.06
2023-02-28T02:46:05.776Z,101550.50
2023-02-28T02:48:36.688Z,101558.31
2023-02-28T02:51:13.167Z,101550.72
2023-02-28T02:53:47.473Z,101543.19
2023-02-28T02:56:17.614Z,101547.72
2023-02-28T02:58:47.377Z,101546.06
2023-02-28T03:01:29.151Z,101541.75
2023-02-28T03:04:01.021Z,101555.56
2023-02-28T03:06:31.254Z,101552.88
2023-02-28T03:08:59.710Z,101552.81
2023-02-28T03:11:28.900Z,101539.94
2023-02-28T03:14:15.352Z,101537.44
2023-02-28T03:17:02.431Z,101557.84
2023-02-28T03:19:50.424Z,101556.16
2023-02-28T03:22:34.267Z,101556.16
2023-02-28T03:25:08.792Z,101557.84
2023-02-28T03:27:44.338Z,101554.44
2023-02-28T03:30:22.693Z,101557.84
2023-02-28T03:32:57.981Z,101560.53
2023-02-28T03:35:30.258Z,101564.88
2023-02-28T03:38:06.222Z,101565.78
2023-02-28T03:40:37.056Z,101571.88
2023-02-28T03:43:14.666Z,101574.41
2023-02-28T03:45:45.723Z,101565.09
2023-02-28T03:48:19.773Z,101570.09
2023-02-28T03:50:51.767Z,101575.31
2023-02-28T03:53:28.179Z,101573.59
2023-02-28T03:56:00.415Z,101576.22
2023-02-28T03:58:35.753Z,101568.47
2023-02-28T04:01:10.320Z,101574.53
2023-02-28T04:03:39.784Z,101578.03
2023-02-28T04:06:15.648Z,101563.41
2023-02-28T04:08:45.555Z,101577.53
2023-02-28T04:11:26.760Z,101573.25
2023-02-28T04:13:55.440Z,101586.28
2023-02-28T04:16:34.420Z,101572.56
2023-02-28T04:19:06.361Z,101584.81
2023-02-28T04:21:37.178Z,101593.63
2023-02-28T04:24:08.121Z,101581.41
2023-02-28T04:26:39.049Z,101582.16
2023-02-28T04:29:09.074Z,101590.69
2023-02-28T04:31:37.717Z,101581.16
2023-02-28T04:34:06.794Z,101580.50
2023-02-28T04:36:35.513Z,101586.41
2023-02-28T04:39:05.262Z,101592.31
2023-02-28T04:41:35.393Z,101594.91
2023-02-28T04:44:04.170Z,101586.28
2023-02-28T04:46:33.093Z,101591.41
2023-02-28T04:49:01.571Z,101586.19
2023-02-28T04:51:30.523Z,101593.09
2023-02-28T04:53:59.340Z,101597.47
2023-02-28T04:56:27.934Z,101596.59
2023-02-28T04:58:57.952Z,101603.59
2023-02-28T05:01:29.137Z,101596.72
2023-02-28T05:03:59.791Z,101595.78
2023-02-28T05:06:31.199Z,101598.41
2023-02-28T05:09:00.014Z,101582.25
2023-02-28T05:11:35.706Z,101594.91
2023-02-28T05:14:07.611Z,101586.50
2023-02-28T05:16:36.207Z,101607.25
2023-02-28T05:19:05.169Z,101602.16
2023-02-28T05:21:35.223Z,101605.53
2023-02-28T05:24:06.300Z,101608.94
2023-02-28T05:26:37.757Z,101608.94
2023-02-28T05:29:08.207Z,101601.31
2023-02-28T05:31:37.013Z,101609.81
2023-02-28T05:34:06.160Z,101608.03
2023-02-28T05:36:35.136Z,101614.16
2023-02-28T05:39:04.891Z,101624.59
2023-02-28T05:41:33.496Z,101622.84
2023-02-28T05:44:02.546Z,101624.66
2023-02-28T05:46:32.463Z,101617.69
2023-02-28T05:49:02.186Z,101622.00
2023-02-28T05:51:31.543Z,101631.63
2023-02-28T05:54:03.864Z,101636.00
2023-02-28T05:56:32.341Z,101636.84
2023-02-28T05:59:00.821Z,101636.84
2023-02-28T06:01:36.341Z,101643.75
2023-02-28T06:04:06.724Z,101644.63
2023-02-28T06:06:37.536Z,101653.28
2023-02-28T06:09:06.240Z,101644.66
2023-02-28T06:11:35.335Z,101650.66
2023-02-28T06:14:05.680Z,101648.22
2023-02-28T06:16:37.098Z,101659.34
2023-02-28T06:19:06.783Z,101659.50
2023-02-28T06:21:35.521Z,101654.38
2023-02-28T06:24:05.047Z,101661.31
2023-02-28T06:26:33.737Z,101661.16
2023-02-28T06:29:02.827Z,101654.38
2023-02-28T06:31:31.674Z,101668.13
2023-02-28T06:34:01.844Z,101662.78
2023-02-28T06:36:30.578Z,101667.00
2023-02-28T06:38:58.988Z,101662.69
2023-02-28T06:41:29.776Z,101662.47
2023-02-28T06:43:59.884Z,101667.59
2023-02-28T06:46:28.740Z,101683.13
2023-02-28T06:48:57.317Z,101667.56
2023-02-28T06:51:28.494Z,101679.41
2023-02-28T06:53:57.151Z,101676.69
2023-02-28T06:56:25.598Z,101675.75
2023-02-28T06:58:54.281Z,101683.47
2023-02-28T07:01:24.171Z,101680.78
2023-02-28T07:03:53.614Z,101678.19
2023-02-28T07:06:23.796Z,101679.75
2023-02-28T07:08:56.213Z,101680.47
2023-02-28T07:11:26.963Z,101685.66
2023-02-28T07:13:56.246Z,101676.75
2023-02-28T07:16:25.732Z,101685.38
2023-02-28T07:18:56.246Z,101684.34
2023-02-28T07:21:25.183Z,101675.69
2023-02-28T07:23:55.129Z,101681.75
2023-02-28T07:26:23.638Z,101682.53
2023-02-28T07:28:52.309Z,101683.31
2023-02-28T07:31:21.117Z,101686.63
2023-02-28T07:33:49.666Z,101680.47
2023-02-28T07:36:21.124Z,101688.94
2023-02-28T07:38:51.372Z,101673.31
2023-02-28T07:41:23.170Z,101690.97
2023-02-28T07:43:51.961Z,101699.38
2023-02-28T07:46:22.457Z,101692.34
2023-02-28T07:48:51.059Z,101704.16
2023-02-28T07:51:19.508Z,101700.56
2023-02-28T07:53:48.124Z,101698.72
2023-02-28T07:56:16.595Z,101702.78
2023-02-28T07:58:46.528Z,101693.91
2023-02-28T08:01:15.511Z,101696.28
2023-02-28T08:03:44.104Z,101699.69
2023-02-28T08:06:20.287Z,101696.75
2023-02-28T08:08:49.235Z,101698.22
2023-02-28T08:11:18.560Z,101693.97
2023-02-28T08:13:49.736Z,101692.16
2023-02-28T08:16:23.281Z,101703.72
2023-02-28T08:18:52.520Z,101690.34
2023-02-28T08:21:23.473Z,101693.97
2023-02-28T08:23:53.599Z,101689.47
2023-02-28T08:26:22.528Z,101689.16
2023-02-28T08:28:52.620Z,101685.19
2023-02-28T08:31:21.847Z,101680.78
2023-02-28T08:33:52.269Z,101681.84
2023-02-28T08:36:22.625Z,101685.53
2023-02-28T08:38:51.172Z,101687.59
2023-02-28T08:41:19.675Z,101688.13
2023-02-28T08:43:48.143Z,101687.84
2023-02-28T08:46:18.024Z,101691.53
2023-02-28T08:48:47.061Z,101684.97
2023-02-28T08:51:19.823Z,101679.84
2023-02-28T08:53:50.632Z,101683.56
2023-02-28T08:56:20.031Z,101691.09
2023-02-28T08:58:49.532Z,101694.31
2023-02-28T09:01:21.178Z,101696.16
2023-02-28T09:03:51.275Z,101694.47
2023-02-28T09:06:21.800Z,101696.94
2023-02-28T09:08:50.655Z,101682.09
2023-02-28T09:11:20.417Z,101697.38
2023-02-28T09:13:49.304Z,101682.56
2023-02-28T09:16:19.714Z,101688.88
2023-02-28T09:18:48.272Z,101693.94
2023-02-28T09:21:18.876Z,101680.28
2023-02-28T09:23:49.234Z,101691.63
2023-02-28T09:26:23.978Z,101679.72
2023-02-28T09:28:53.942Z,101683.25
2023-02-28T09:31:26.569Z,101685.09
2023-02-28T09:33:57.487Z,101672.81
2023-02-28T09:36:38.179Z,101676.75
2023-02-28T09:39:13.809Z,101668.41
2023-02-28T09:41:49.678Z,101676.03
2023-02-28T09:44:24.353Z,101672.97
2023-02-28T09:46:58.357Z,101659.25
2023-02-28T09:49:31.275Z,101667.59
2023-02-28T09:52:03.624Z,101662.19
2023-02-28T09:54:35.008Z,101667.44
2023-02-28T09:57:09.307Z,101673.63
2023-02-28T09:59:56.831Z,101670.16
2023-02-28T10:02:55.805Z,101677.78
2023-02-28T10:05:28.439Z,101676.34
2023-02-28T10:08:06.995Z,101677.34
2023-02-28T10:10:41.934Z,101679.03
2023-02-28T10:13:20.065Z,101681.28
2023-02-28T10:15:51.361Z,101688.16
2023-02-28T10:18:25.812Z,101683.31
2023-02-28T10:20:56.865Z,101686.16
2023-02-28T10:23:29.805Z,101682.78
2023-02-28T10:26:01.966Z,101681.00
2023-02-28T10:28:33.295Z,101678.16
2023-02-28T10:31:02.084Z,101682.38
2023-02-28T10:33:35.481Z,101663.63
2023-02-28T10:36:05.088Z,101677.97
2023-02-28T10:38:38.058Z,101671.16
2023-02-28T10:41:09.015Z,101670.38
2023-02-28T10:43:38.233Z,101669.34
2023-02-28T10:46:16.146Z,101674.03
2023-02-28T10:48:49.616Z,101670.34
2023-02-28T10:51:20.964Z,101674.56
2023-02-28T10:54:01.027Z,101668.28
2023-02-28T10:56:32.024Z,101671.34
2023-02-28T10:59:02.668Z,101662.72
2023-02-28T11:01:40.641Z,101660.25
2023-02-28T11:04:23.139Z,101662.59
2023-02-28T11:06:59.981Z,101660.91
2023-02-28T11:09:33.164Z,101649.44
2023-02-28T11:12:03.118Z,101659.78
2023-02-28T11:14:35.417Z,101660.94
2023-02-28T11:17:17.456Z,101649.69
2023-02-28T11:19:52.485Z,101635.09
2023-02-28T11:22:24.312Z,101646.34
2023-02-28T11:24:56.258Z,101630.19
2023-02-28T11:27:42.720Z,101629.25
2023-02-28T11:30:27.742Z,101632.06
2023-02-28T11:32:56.579Z,101641.66
2023-02-28T11:35:31.047Z,101634.13
2023-02-28T11:38:00.722Z,101638.81
2023-02-28T11:40:39.528Z,101637.63
2023-02-28T11:43:21.429Z,101635.06
2023-02-28T11:46:04.902Z,101632.31
2023-02-28T11:48:43.003Z,101639.50
2023-02-28T11:51:21.799Z,101641.69
2023-02-28T11:54:06.405Z,101634.25
2023-02-28T11:56:40.353Z,101625.00
2023-02-28T11:59:33.314Z,101616.16
2023-02-28T12:02:18.167Z,101626.19
2023-02-28T12:04:58.095Z,101610.69
2023-02-28T12:07:37.946Z,101614.53
2023-02-28T12:10:19.712Z,101605.38
2023-02-28T12:13:00.302Z,101599.91
2023-02-28T12:15:51.526Z,101606.16
2023-02-28T12:18:41.146Z,101600.88
2023-02-28T12:21:17.866Z,101593.41
2023-02-28T12:24:00.117Z,101590.31
2023-02-28T12:26:39.165Z,101594.31
2023-02-28T12:29:24.470Z,101589.91
2023-02-28T12:31:56.250Z,101582.28
2023-02-28T12:34:30.832Z,101586.81
2023-02-28T12:37:03.819Z,101581.25
2023-02-28T12:39:49.746Z,101580.34
2023-02-28T12:42:26.592Z,101576.41
2023-02-28T12:44:59.189Z,101576.53
2023-02-28T12:47:28.793Z,101567.53
2023-02-28T12:50:01.870Z,101575.00
2023-02-28T12:52:38.549Z,101568.97
2023-02-28T12:55:17.660Z,101564.72
2023-02-28T12:57:53.320Z,101563.91
2023-02-28T13:00:25.317Z,101562.19
2023-02-28T13:03:16.202Z,101571.25
2023-02-28T13:06:00.795Z,101568.03
2023-02-28T13:09:07.185Z,101570.63
2023-02-28T13:11:43.055Z,101563.78
2023-02-28T13:14:24.607Z,101562.09
2023-02-28T13:17:06.104Z,101556.00
2023-02-28T13:19:37.231Z,101558.56
2023-02-28T13:22:06.642Z,101566.75
2023-02-28T13:24:47.709Z,101570.38
2023-02-28T13:27:40.802Z,101573.78
2023-02-28T13:30:57.080Z,101570.06
2023-02-28T13:33:31.300Z,101561.88
2023-02-28T13:36:25.316Z,101563.19
2023-02-28T13:38:56.766Z,101561.72
2023-02-28T13:41:44.965Z,101563.19
2023-02-28T13:44:16.621Z,101557.78
2023-02-28T13:47:30.260Z,101552.22
2023-02-28T13:50:25.032Z,101551.59
2023-02-28T13:53:16.839Z,101555.47
2023-02-28T13:55:49.413Z,101550.16
2023-02-28T13:58:38.342Z,101551.56
2023-02-28T14:01:24.846Z,101545.09
2023-02-28T14:04:06.529Z,101541.44
2023-02-28T14:06:39.700Z,101523.38
2023-02-28T14:09:20.700Z,101541.00
2023-02-28T14:11:49.863Z,101531.34
2023-02-28T14:14:52.138Z,101529.19
2023-02-28T14:17:22.604Z,101521.00
2023-02-28T14:19:51.482Z,101522.19
2023-02-28T14:22:41.461Z,101522.81
2023-02-28T14:25:26.421Z,101517.75
2023-02-28T14:28:09.113Z,101521.25
2023-02-28T14:31:00.344Z,101528.97
2023-02-28T14:33:41.510Z,101529.94
2023-02-28T14:36:22.909Z,101527.28
2023-02-28T14:38:57.497Z,101523.31
2023-02-28T14:41:36.603Z,101519.81
2023-02-28T14:44:17.983Z,101512.31
2023-02-28T14:46:48.470Z,101517.91
2023-02-28T14:49:25.823Z,101515.44
2023-02-28T14:52:06.184Z,101515.63
2023-02-28T14:54:35.847Z,101511.63
2023-02-28T14:57:07.336Z,101511.84
2023-02-28T14:59:38.144Z,101510.63
2023-02-28T15:02:21.355Z,101515.34
2023-02-28T15:04:59.538Z,101520.53
2023-02-28T15:07:33.271Z,101515.13
2023-02-28T15:10:20.108Z,101516.66
2023-02-28T15:12:57.531Z,101512.69
2023-02-28T15:15:40.435Z,101518.41
2023-02-28T15:18:13.347Z,101518.63
2023-02-28T15:20:46.729Z,101508.00
2023-02-28T15:23:16.967Z,101520.16
2023-02-28T15:25:45.580Z,101510.47
2023-02-28T15:28:18.578Z,101516.50
2023-02-28T15:30:56.984Z,101501.81
2023-02-28T15:33:27.776Z,101511.69
2023-02-28T15:36:13.270Z,101498.97
2023-02-28T15:38:41.982Z,101516.41
2023-02-28T15:41:26.129Z,101509.16
2023-02-28T15:44:19.201Z,101512.78
2023-02-28T15:46:58.829Z,101509.81
2023-02-28T15:49:28.097Z,101508.91
2023-02-28T15:52:00.969Z,101488.25
2023-02-28T15:54:32.089Z,101502.72
2023-02-28T15:57:07.478Z,101514.78
2023-02-28T15:59:35.988Z,101496.94
2023-02-28T16:02:16.422Z,101505.50
2023-02-28T16:05:06.478Z,101509.63
2023-02-28T16:07:39.745Z,101502.78
2023-02-28T16:10:09.814Z,101503.09
2023-02-28T16:12:40.029Z,101504.69
2023-02-28T16:15:10.667Z,101505.22
2023-02-28T16:17:41.766Z,101504.28
2023-02-28T16:20:16.500Z,101510.94
2023-02-28T16:22:46.910Z,101513.50
2023-02-28T16:25:17.152Z,101519.59
2023-02-28T16:27:48.254Z,101520.31
2023-02-28T16:30:22.594Z,101516.94
2023-02-28T16:32:52.561Z,101521.13
2023-02-28T16:35:21.853Z,101510.94
2023-02-28T16:37:53.372Z,101531.19
2023-02-28T16:40:24.334Z,101525.69
2023-02-28T16:42:55.078Z,101503.31
2023-02-28T16:45:29.191Z,101522.06
2023-02-28T16:47:58.544Z,101523.41
2023-02-28T16:50:28.750Z,101528.97
2023-02-28T16:53:01.588Z,101535.66
2023-02-28T16:55:30.593Z,101535.31
2023-02-28T16:58:01.575Z,101535.88
2023-02-28T17:00:33.171Z,101543.13
2023-02-28T17:03:04.644Z,101539.28
2023-02-28T17:05:39.701Z,101532.53
2023-02-28T17:08:11.449Z,101548.13
2023-02-28T17:10:41.006Z,101540.97
2023-02-28T17:13:15.200Z,101545.69
2023-02-28T17:15:44.427Z,101550.56
2023-02-28T17:18:17.232Z,101548.69
2023-02-28T17:20:45.917Z,101554.38
2023-02-28T17:23:16.628Z,101546.19
2023-02-28T17:25:57.621Z,101542.31
2023-02-28T17:28:26.780Z,101546.25
2023-02-28T17:30:55.438Z,101548.38
2023-02-28T17:33:25.255Z,101547.78
2023-02-28T17:35:56.834Z,101533.75
2023-02-28T17:38:26.909Z,101553.69
2023-02-28T17:40:58.538Z,101542.06
2023-02-28T17:43:27.870Z,101530.56
2023-02-28T17:45:56.725Z,101546.34
2023-02-28T17:48:25.287Z,101545.09
2023-02-28T17:50:53.866Z,101541.13
2023-02-28T17:53:24.297Z,101531.53
2023-02-28T17:55:55.566Z,101548.06
2023-02-28T17:58:24.065Z,101540.75
2023-02-28T18:00:55.035Z,101549.81
2023-02-28T18:03:25.434Z,101552.00
2023-02-28T18:05:54.030Z,101551.41
2023-02-28T18:08:23.343Z,101550.03
2023-02-28T18:10:51.884Z,101561.72
2023-02-28T18:13:22.144Z,101554.25
2023-02-28T18:15:50.932Z,101565.84
2023-02-28T18:18:19.803Z,101557.44
2023-02-28T18:20:49.515Z,101547.59
2023-02-28T18:23:20.892Z,101572.84
2023-02-28T18:25:50.101Z,101562.06
2023-02-28T18:28:18.547Z,101557.09
2023-02-28T18:30:48.721Z,101559.09
2023-02-28T18:33:17.994Z,101558.50
2023-02-28T18:35:46.590Z,101555.56
2023-02-28T18:38:17.561Z,101554.91
2023-02-28T18:40:54.230Z,101556.19
2023-02-28T18:43:23.191Z,101569.41
2023-02-28T18:45:53.556Z,101562.75
2023-02-28T18:48:24.036Z,101572.69
2023-02-28T18:50:53.439Z,101574.69
2023-02-28T18:53:21.843Z,101567.91
2023-02-28T18:55:50.310Z,101566.47
2023-02-28T18:58:18.862Z,101554.47
2023-02-28T19:00:49.885Z,101554.00
2023-02-28T19:03:20.335Z,101556.94
2023-02-28T19:05:50.720Z,101565.88
2023-02-28T19:08:19.496Z,101552.56
2023-02-28T19:10:48.084Z,101569.75
2023-02-28T19:13:16.625Z,101560.59
2023-02-28T19:15:45.401Z,101549.47
2023-02-28T19:18:13.968Z,101549.03
2023-02-28T19:20:44.081Z,101558.47
2023-02-28T19:23:15.542Z,101558.84
2023-02-28T19:25:44.528Z,101553.09
2023-02-28T19:28:13.578Z,101566.19
2023-02-28T19:30:42.462Z,101561.44
2023-02-28T19:33:10.926Z,101570.94
2023-02-28T19:35:42.016Z,101565.06
2023-02-28T19:38:12.276Z,101569.66
2023-02-28T19:40:40.878Z,101560.53
2023-02-28T19:43:09.805Z,101569.16
2023-02-28T19:45:41.962Z,101560.91
2023-02-28T19:48:10.633Z,101568.66
2023-02-28T19:50:41.713Z,101559.59
2023-02-28T19:53:11.764Z,101570.81
2023-02-28T19:55:40.932Z,101568.41
2023-02-28T19:58:11.237Z,101572.06
2023-02-28T20:00:39.676Z,101572.28
2023-02-28T20:03:08.212Z,101569.94
2023-02-28T20:05:37.918Z,101547.72
2023-02-28T20:08:06.696Z,101563.19
2023-02-28T20:10:36.741Z,101565.13
2023-02-28T20:13:05.521Z,101571.31
2023-02-28T20:15:34.268Z,101574.16
2023-02-28T20:18:02.767Z,101568.19
2023-02-28T20:20:31.409Z,101565.78
2023-02-28T20:22:59.893Z,101568.56
2023-02-28T20:25:28.383Z,101555.84
2023-02-28T20:27:58.372Z,101566.22
2023-02-28T20:30:26.935Z,101569.88
2023-02-28T20:32:55.609Z,101570.94
2023-02-28T20:35:25.073Z,101566.75
2023-02-28T20:37:53.544Z,101567.78
2023-02-28T20:40:22.351Z,101579.25
2023-02-28T20:42:51.146Z,101575.06
2023-02-28T20:45:21.020Z,101564.91
2023-02-28T20:47:49.509Z,101569.22
2023-02-28T20:50:19.459Z,101568.44
2023-02-28T20:52:47.977Z,101568.69
2023-02-28T20:55:16.548Z,101567.94
2023-02-28T20:57:45.294Z,101562.91
2023-02-28T21:00:20.768Z,101571.72
2023-02-28T21:02:50.853Z,101575.38
2023-02-28T21:05:19.440Z,101582.63
2023-02-28T21:07:47.873Z,101574.78
2023-02-28T21:10:16.613Z,101578.34
2023-02-28T21:12:45.308Z,101573.31
2023-02-28T21:15:13.909Z,101578.66
2023-02-28T21:17:42.473Z,101564.94
2023-02-28T21:20:22.289Z,101569.41
2023-02-28T21:22:51.329Z,101567.00
2023-02-28T21:25:20.376Z,101574.06
2023-02-28T21:27:49.179Z,101564.69
2023-02-28T21:30:17.981Z,101568.19
2023-02-28T21:32:46.587Z,101570.09
2023-02-28T21:35:16.710Z,101544.50
2023-02-28T21:37:45.782Z,101558.34
2023-02-28T21:40:15.254Z,101567.97
2023-02-28T21:42:43.849Z,101565.47
2023-02-28T21:45:12.912Z,101562.34
2023-02-28T21:47:41.548Z,101559.06
2023-02-28T21:50:11.897Z,101572.03
2023-02-28T21:52:42.146Z,101563.53
2023-02-28T21:55:11.452Z,101569.75
2023-02-28T21:57:40.457Z,101568.13
2023-02-28T22:00:11.996Z,101554.66
2023-02-28T22:02:41.021Z,101555.56
2023-02-28T22:05:10.282Z,101563.25
2023-02-28T22:07:42.175Z,101567.72
2023-02-28T22:10:13.125Z,101561.69
2023-02-28T22:12:41.576Z,101573.06
2023-02-28T22:15:10.571Z,101573.25
2023-02-28T22:17:39.390Z,101575.06
2023-02-28T22:20:08.834Z,101575.16
2023-02-28T22:22:37.673Z,101575.28
2023-02-28T22:25:07.405Z,101575.38
2023-02-28T22:27:37.720Z,101553.31
2023-02-28T22:30:07.710Z,101572.13
2023-02-28T22:32:37.577Z,101562.00
2023-02-28T22:35:06.926Z,101576.66
2023-02-28T22:37:35.829Z,101586.28
2023-02-28T22:40:04.960Z,101583.00
2023-02-28T22:42:35.554Z,101607.34
2023-02-28T22:45:05.921Z,101592.03
2023-02-28T22:47:34.505Z,101602.47
2023-02-28T22:50:03.113Z,101600.75
2023-02-28T22:52:31.546Z,101608.72
2023-02-28T22:54:59.978Z,101602.78
2023-02-28T22:57:29.879Z,101606.31
2023-02-28T22:59:58.340Z,101613.41
2023-02-28T23:02:29.288Z,101603.13
2023-02-28T23:04:57.886Z,101602.31
2023-02-28T23:07:27.088Z,101600.69
2023-02-28T23:09:55.682Z,101592.97
2023-02-28T23:12:24.207Z,101598.28
2023-02-28T23:14:52.657Z,101601.91
2023-02-28T23:17:21.486Z,101596.78
2023-02-28T23:19:52.061Z,101603.81
2023-02-28T23:22:20.700Z,101591.78
2023-02-28T23:24:49.358Z,101592.91
2023-02-28T23:27:17.778Z,101574.84
2023-02-28T23:29:46.313Z,101600.69
2023-02-28T23:32:14.935Z,101591.28
2023-02-28T23:34:43.553Z,101586.09
2023-02-28T23:37:13.435Z,101588.88
2023-02-28T23:39:41.920Z,101590.69
2023-02-28T23:42:10.506Z,101588.16
2023-02-28T23:44:38.933Z,101605.53
2023-02-28T23:47:07.468Z,101603.09
2023-02-28T23:49:36.438Z,101617.09
2023-02-28T23:52:05.810Z,101610.28
2023-02-28T23:54:35.708Z,101604.28
2023-02-28T23:57:04.311Z,101607.81
2023-02-28T23:59:32.879Z,101601.84
